createdAt,value
2018-06-30T00:00:58.752Z,94.50
2018-06-30T00:04:03.427Z,94.30
2018-06-30T00:07:07.567Z,94.40
2018-06-30T00:10:12.541Z,94.60
2018-06-30T00:13:17.115Z,94.70
2018-06-30T00:16:21.611Z,94.50
2018-06-30T00:19:26.682Z,94.50
2018-06-30T00:22:31.568Z,94.50
2018-06-30T00:28:40.440Z,94.70
2018-06-30T00:31:45.269Z,95.00
2018-06-30T00:34:50.195Z,94.60
2018-06-30T00:37:54.430Z,94.70
2018-06-30T00:40:59.848Z,94.80
2018-06-30T00:44:04.932Z,94.70
2018-06-30T00:47:09.406Z,94.80
2018-06-30T00:50:14.149Z,95.10
2018-06-30T00:53:18.936Z,95.20
2018-06-30T00:56:23.422Z,95.30
2018-06-30T00:59:27.854Z,95.40
2018-06-30T01:02:32.146Z,95.50
2018-06-30T01:05:37.085Z,95.50
2018-06-30T01:08:41.779Z,95.60
2018-06-30T01:11:46.660Z,95.80
2018-06-30T01:14:51.381Z,95.90
2018-06-30T01:17:56.098Z,96.20
2018-06-30T01:21:00.880Z,96.30
2018-06-30T01:24:05.472Z,96.50
2018-06-30T01:27:09.829Z,96.80
2018-06-30T01:30:14.308Z,96.80
2018-06-30T01:33:18.910Z,97.10
2018-06-30T01:36:23.799Z,97.30
2018-06-30T01:39:28.659Z,97.40
2018-06-30T01:42:33.767Z,97.60
2018-06-30T01:45:38.153Z,97.70
2018-06-30T01:48:42.872Z,97.90
2018-06-30T01:51:47.583Z,98.00
2018-06-30T01:54:51.859Z,98.00
2018-06-30T01:57:56.726Z,98.20
2018-06-30T02:01:01.282Z,98.30
2018-06-30T02:04:06.485Z,98.30
2018-06-30T02:07:11.319Z,98.50
2018-06-30T02:10:16.675Z,98.60
2018-06-30T02:13:21.489Z,98.70
2018-06-30T02:16:26.345Z,98.70
2018-06-30T02:19:31.350Z,99.00
2018-06-30T02:22:36.390Z,98.80
2018-06-30T02:25:41.223Z,99.10
2018-06-30T02:28:45.795Z,99.10
2018-06-30T02:31:50.764Z,98.90
2018-06-30T02:34:55.396Z,99.10
2018-06-30T02:38:00.726Z,99.20
2018-06-30T02:41:05.188Z,99.10
2018-06-30T02:44:09.918Z,99.10
2018-06-30T02:47:14.606Z,99.20
2018-06-30T02:50:18.901Z,99.30
2018-06-30T02:53:23.401Z,99.50
2018-06-30T02:56:27.960Z,99.30
2018-06-30T02:59:32.465Z,99.60
2018-06-30T03:02:37.999Z,99.50
2018-06-30T03:05:42.566Z,99.30
2018-06-30T03:08:47.087Z,99.40
2018-06-30T03:11:51.891Z,99.50
2018-06-30T03:14:56.455Z,99.50
2018-06-30T03:18:01.272Z,99.50
2018-06-30T03:21:05.910Z,99.50
2018-06-30T03:24:11.037Z,99.40
2018-06-30T03:27:15.715Z,99.40
2018-06-30T03:30:19.939Z,99.40
2018-06-30T03:33:24.729Z,99.30
2018-06-30T03:36:29.731Z,99.30
2018-06-30T03:39:34.691Z,99.10
2018-06-30T03:42:39.663Z,99.10
2018-06-30T03:45:44.810Z,98.70
2018-06-30T03:48:49.642Z,98.80
2018-06-30T03:51:54.430Z,98.50
2018-06-30T03:54:58.684Z,98.40
2018-06-30T03:58:03.491Z,98.40
2018-06-30T04:01:08.980Z,98.20
2018-06-30T04:04:13.378Z,97.90
2018-06-30T04:07:18.040Z,97.90
2018-06-30T04:10:22.306Z,97.80
2018-06-30T04:13:26.997Z,97.50
2018-06-30T04:16:31.539Z,97.40
2018-06-30T04:19:36.644Z,97.10
2018-06-30T04:22:41.176Z,97.10
2018-06-30T04:25:45.672Z,97.00
2018-06-30T04:28:50.086Z,96.70
2018-06-30T04:31:54.312Z,96.70
2018-06-30T04:34:58.925Z,96.30
2018-06-30T04:38:03.187Z,96.10
2018-06-30T04:41:08.132Z,95.90
2018-06-30T04:44:13.076Z,95.90
2018-06-30T04:47:17.716Z,95.80
2018-06-30T04:50:22.971Z,95.90
2018-06-30T04:53:27.394Z,95.60
2018-06-30T04:56:32.371Z,95.60
2018-06-30T04:59:37.222Z,95.40
2018-06-30T05:02:41.850Z,95.30
2018-06-30T05:05:46.584Z,95.10
2018-06-30T05:08:51.448Z,95.20
2018-06-30T05:11:56.397Z,95.40
2018-06-30T05:15:01.152Z,95.20
2018-06-30T05:18:06.221Z,95.20
2018-06-30T05:21:10.758Z,95.50
2018-06-30T05:24:17.009Z,95.70
2018-06-30T05:27:21.329Z,95.70
2018-06-30T05:30:26.149Z,95.50
2018-06-30T05:33:30.870Z,95.40
2018-06-30T05:36:35.977Z,95.50
2018-06-30T05:39:40.850Z,95.30
2018-06-30T05:42:45.387Z,95.30
2018-06-30T05:45:50.737Z,94.90
2018-06-30T05:48:56.077Z,94.40
2018-06-30T05:52:01.090Z,94.60
2018-06-30T05:55:05.870Z,94.80
2018-06-30T05:58:11.191Z,94.50
2018-06-30T06:01:16.196Z,94.30
2018-06-30T06:04:20.900Z,94.50
2018-06-30T06:07:26.044Z,94.30
2018-06-30T06:10:30.635Z,91.20
2018-06-30T06:13:35.589Z,89.10
2018-06-30T06:16:40.403Z,84.00
2018-06-30T06:19:45.912Z,83.80
2018-06-30T06:22:50.689Z,78.40
2018-06-30T06:25:55.502Z,75.30
2018-06-30T06:28:59.943Z,72.70
2018-06-30T06:32:04.533Z,71.10
2018-06-30T06:35:09.449Z,68.30
2018-06-30T06:38:14.571Z,66.20
2018-06-30T06:41:19.447Z,70.30
2018-06-30T06:44:24.928Z,74.50
2018-06-30T06:47:29.965Z,79.30
2018-06-30T06:50:34.929Z,76.00
2018-06-30T06:53:39.651Z,75.80
2018-06-30T06:56:44.296Z,76.00
2018-06-30T06:59:49.345Z,75.20
2018-06-30T07:02:55.721Z,77.80
2018-06-30T07:06:00.634Z,80.10
2018-06-30T07:09:08.894Z,75.70
2018-06-30T07:12:13.879Z,73.70
2018-06-30T07:15:18.669Z,70.90
2018-06-30T07:18:23.449Z,76.70
2018-06-30T07:21:28.285Z,83.10
2018-06-30T07:24:33.215Z,80.50
2018-06-30T07:27:38.116Z,76.50
2018-06-30T07:30:43.066Z,71.30
2018-06-30T07:33:47.505Z,71.80
2018-06-30T07:36:51.801Z,67.40
2018-06-30T07:39:56.481Z,67.20
2018-06-30T07:43:00.920Z,65.00
2018-06-30T07:46:05.765Z,64.40
2018-06-30T07:49:10.666Z,58.30
2018-06-30T07:52:15.230Z,58.80
2018-06-30T07:55:20.004Z,58.50
2018-06-30T07:58:24.661Z,55.90
2018-06-30T08:01:29.400Z,53.10
2018-06-30T08:04:34.096Z,51.40
2018-06-30T08:07:39.098Z,52.80
2018-06-30T08:10:43.649Z,50.10
2018-06-30T08:13:48.164Z,49.60
2018-06-30T08:16:52.961Z,48.60
2018-06-30T08:19:57.350Z,48.60
2018-06-30T08:23:02.103Z,48.50
2018-06-30T08:26:06.837Z,48.30
2018-06-30T08:29:11.774Z,48.80
2018-06-30T08:32:16.476Z,49.10
2018-06-30T08:35:20.855Z,47.80
2018-06-30T08:38:25.398Z,46.30
2018-06-30T08:41:29.514Z,47.70
2018-06-30T08:44:34.127Z,48.70
2018-06-30T08:47:39.051Z,43.40
2018-06-30T08:50:43.796Z,43.40
2018-06-30T08:53:49.282Z,43.80
2018-06-30T08:56:54.266Z,41.70
2018-06-30T08:59:58.615Z,39.30
2018-06-30T09:03:03.480Z,38.10
2018-06-30T09:06:08.264Z,37.30
2018-06-30T09:09:13.674Z,39.00
2018-06-30T09:12:18.667Z,38.20
2018-06-30T09:15:23.573Z,36.10
2018-06-30T09:18:28.423Z,36.60
2018-06-30T09:21:33.254Z,35.60
2018-06-30T09:24:38.278Z,34.10
2018-06-30T09:27:43.007Z,38.60
2018-06-30T09:30:47.699Z,38.80
2018-06-30T09:34:01.603Z,36.90
2018-06-30T09:37:06.473Z,33.50
2018-06-30T09:40:11.492Z,36.50
2018-06-30T09:43:16.228Z,36.70
2018-06-30T09:46:20.764Z,36.20
2018-06-30T09:49:25.295Z,37.10
2018-06-30T09:52:30.148Z,34.30
2018-06-30T09:55:35.456Z,35.40
2018-06-30T09:58:40.088Z,34.90
2018-06-30T10:01:44.502Z,34.20
2018-06-30T10:04:48.831Z,34.60
2018-06-30T10:07:53.393Z,35.10
2018-06-30T10:10:58.388Z,36.30
2018-06-30T10:14:02.965Z,32.70
2018-06-30T10:17:07.920Z,34.30
2018-06-30T10:20:12.881Z,32.20
2018-06-30T10:23:17.830Z,33.10
2018-06-30T10:26:22.648Z,34.00
2018-06-30T10:29:27.090Z,34.00
2018-06-30T10:32:31.654Z,34.80
2018-06-30T10:35:36.229Z,34.30
2018-06-30T10:38:40.911Z,34.20
2018-06-30T10:41:45.212Z,34.20
2018-06-30T10:44:50.315Z,35.30
2018-06-30T10:47:55.264Z,32.70
2018-06-30T10:51:00.049Z,32.90
2018-06-30T10:54:04.844Z,33.90
2018-06-30T10:57:10.494Z,32.80
2018-06-30T11:00:15.035Z,33.90
2018-06-30T11:03:19.802Z,34.20
2018-06-30T11:06:24.549Z,35.10
2018-06-30T11:09:29.692Z,35.10
2018-06-30T11:12:34.861Z,35.50
2018-06-30T11:15:39.155Z,34.60
2018-06-30T11:18:43.766Z,34.80
2018-06-30T11:21:48.373Z,34.10
2018-06-30T11:24:53.127Z,32.70
2018-06-30T11:27:57.726Z,33.60
2018-06-30T11:31:02.659Z,32.90
2018-06-30T11:34:07.183Z,33.60
2018-06-30T11:37:11.526Z,34.00
2018-06-30T11:40:17.110Z,34.30
2018-06-30T11:43:21.498Z,33.10
2018-06-30T11:46:26.178Z,36.10
2018-06-30T11:49:30.631Z,35.80
2018-06-30T11:52:35.532Z,36.40
2018-06-30T11:55:40.379Z,35.90
2018-06-30T11:58:44.865Z,36.30
2018-06-30T12:01:49.471Z,35.60
2018-06-30T12:04:53.911Z,36.40
2018-06-30T12:07:58.908Z,34.10
2018-06-30T12:11:03.842Z,34.10
2018-06-30T12:14:09.205Z,33.80
2018-06-30T12:17:13.654Z,33.00
2018-06-30T12:20:18.314Z,32.50
2018-06-30T12:23:23.134Z,33.90
2018-06-30T12:26:27.866Z,32.70
2018-06-30T12:29:32.523Z,32.80
2018-06-30T12:32:37.208Z,33.00
2018-06-30T12:35:41.676Z,32.70
2018-06-30T12:38:46.157Z,32.40
2018-06-30T12:41:50.512Z,32.80
2018-06-30T12:44:54.868Z,32.90
2018-06-30T12:47:59.446Z,32.20
2018-06-30T12:51:04.338Z,32.90
2018-06-30T12:54:09.298Z,32.00
2018-06-30T12:57:14.034Z,32.10
2018-06-30T13:00:18.669Z,31.30
2018-06-30T13:03:23.640Z,30.60
2018-06-30T13:06:28.685Z,32.90
2018-06-30T13:09:33.671Z,33.40
2018-06-30T13:12:38.340Z,32.30
2018-06-30T13:15:42.935Z,32.30
2018-06-30T13:18:47.574Z,32.00
2018-06-30T13:21:52.094Z,31.30
2018-06-30T13:24:56.921Z,31.10
2018-06-30T13:28:01.650Z,30.80
2018-06-30T13:31:06.575Z,31.30
2018-06-30T13:34:11.210Z,32.00
2018-06-30T13:37:15.723Z,32.60
2018-06-30T13:40:20.452Z,32.30
2018-06-30T13:43:25.227Z,32.60
2018-06-30T13:46:29.744Z,32.40
2018-06-30T13:49:34.174Z,31.80
2018-06-30T13:52:38.934Z,32.20
2018-06-30T13:55:43.371Z,32.40
2018-06-30T13:58:48.160Z,32.00
2018-06-30T14:01:52.702Z,31.60
2018-06-30T14:04:57.578Z,31.00
2018-06-30T14:08:02.189Z,30.60
2018-06-30T14:11:06.988Z,31.20
2018-06-30T14:14:11.778Z,31.40
2018-06-30T14:17:16.283Z,33.40
2018-06-30T14:20:20.972Z,33.80
2018-06-30T14:23:25.813Z,32.60
2018-06-30T14:26:30.128Z,33.60
2018-06-30T14:29:34.647Z,33.50
2018-06-30T14:32:39.591Z,34.40
2018-06-30T14:35:44.564Z,34.50
2018-06-30T14:38:49.353Z,34.00
2018-06-30T14:41:54.050Z,33.80
2018-06-30T14:44:58.846Z,34.30
2018-06-30T14:48:03.754Z,34.50
2018-06-30T14:51:08.056Z,33.90
2018-06-30T14:54:12.776Z,33.60
2018-06-30T14:57:17.693Z,33.20
2018-06-30T15:00:22.187Z,33.60
2018-06-30T15:03:26.715Z,32.80
2018-06-30T15:06:31.381Z,33.90
2018-06-30T15:09:36.516Z,33.50
2018-06-30T15:12:41.259Z,34.10
2018-06-30T15:15:45.847Z,33.60
2018-06-30T15:18:50.360Z,32.80
2018-06-30T15:21:55.296Z,32.50
2018-06-30T15:25:01.091Z,33.00
2018-06-30T15:28:05.645Z,32.40
2018-06-30T15:34:14.556Z,32.70
2018-06-30T15:37:19.041Z,33.50
2018-06-30T15:40:23.722Z,32.90
2018-06-30T15:43:28.418Z,32.90
2018-06-30T15:46:32.763Z,32.50
2018-06-30T15:49:37.868Z,32.40
2018-06-30T15:52:43.122Z,32.80
2018-06-30T15:55:47.556Z,32.90
2018-06-30T15:58:52.228Z,31.90
2018-06-30T16:01:57.323Z,32.10
2018-06-30T16:05:01.988Z,31.90
2018-06-30T16:08:06.669Z,31.70
2018-06-30T16:11:11.731Z,32.30
2018-06-30T16:14:17.071Z,31.20
2018-06-30T16:17:21.491Z,31.50
2018-06-30T16:20:25.977Z,32.30
2018-06-30T16:23:30.556Z,33.00
2018-06-30T16:26:35.719Z,33.30
2018-06-30T16:29:40.351Z,33.60
2018-06-30T16:32:45.099Z,33.90
2018-06-30T16:35:49.846Z,34.10
2018-06-30T16:38:54.075Z,34.10
2018-06-30T16:41:58.664Z,33.60
2018-06-30T16:45:03.388Z,34.30
2018-06-30T16:48:07.718Z,34.40
2018-06-30T16:51:12.487Z,34.80
2018-06-30T16:54:17.507Z,35.40
2018-06-30T16:57:22.538Z,35.20
2018-06-30T17:00:27.261Z,35.70
2018-06-30T17:03:31.602Z,35.20
2018-06-30T17:06:36.201Z,35.10
2018-06-30T17:09:40.530Z,36.20
2018-06-30T17:12:45.304Z,35.70
2018-06-30T17:15:49.904Z,35.60
2018-06-30T17:18:54.119Z,35.80
2018-06-30T17:21:58.936Z,35.60
2018-06-30T17:25:03.353Z,35.10
2018-06-30T17:28:07.795Z,34.90
2018-06-30T17:31:12.628Z,35.00
2018-06-30T17:34:17.161Z,35.30
2018-06-30T17:37:21.616Z,35.80
2018-06-30T17:40:25.975Z,36.20
2018-06-30T17:43:30.365Z,37.00
2018-06-30T17:46:35.584Z,36.60
2018-06-30T17:49:40.586Z,36.90
2018-06-30T17:52:45.282Z,36.90
2018-06-30T17:55:51.471Z,36.50
2018-06-30T17:58:56.037Z,36.60
2018-06-30T18:02:00.828Z,37.50
2018-06-30T18:05:05.937Z,37.60
2018-06-30T18:08:10.160Z,37.10
2018-06-30T18:11:14.854Z,37.60
2018-06-30T18:14:19.399Z,38.00
2018-06-30T18:17:24.328Z,38.10
2018-06-30T18:20:28.907Z,37.90
2018-06-30T18:23:33.300Z,38.40
2018-06-30T18:26:38.951Z,38.30
2018-06-30T18:29:43.975Z,38.60
2018-06-30T18:32:48.509Z,38.70
2018-06-30T18:35:53.232Z,39.00
2018-06-30T18:38:58.252Z,39.30
2018-06-30T18:42:02.906Z,39.50
2018-06-30T18:45:07.508Z,39.90
2018-06-30T18:48:12.283Z,39.90
2018-06-30T18:51:17.248Z,40.50
2018-06-30T18:54:21.757Z,40.80
2018-06-30T18:57:26.113Z,41.00
2018-06-30T19:00:30.608Z,41.20
2018-06-30T19:03:35.112Z,41.80
2018-06-30T19:06:40.349Z,42.10
2018-06-30T19:09:45.080Z,42.20
2018-06-30T19:12:49.817Z,42.60
2018-06-30T19:15:54.153Z,43.00
2018-06-30T19:18:58.779Z,43.30
2018-06-30T19:22:03.363Z,43.50
2018-06-30T19:25:08.017Z,43.70
2018-06-30T19:28:12.250Z,44.80
2018-06-30T19:31:17.695Z,44.40
2018-06-30T19:34:22.969Z,44.70
2018-06-30T19:37:27.452Z,44.80
2018-06-30T19:40:32.193Z,45.10
2018-06-30T19:43:37.245Z,45.50
2018-06-30T19:46:42.076Z,45.70
2018-06-30T19:49:46.739Z,45.90
2018-06-30T19:52:51.881Z,46.10
2018-06-30T19:55:56.215Z,46.20
2018-06-30T19:59:01.120Z,46.60
2018-06-30T20:02:06.169Z,47.00
2018-06-30T20:05:10.795Z,47.40
2018-06-30T20:08:15.323Z,47.70
2018-06-30T20:11:19.688Z,48.00
2018-06-30T20:14:25.203Z,48.30
2018-06-30T20:17:30.120Z,48.60
2018-06-30T20:20:34.702Z,48.70
2018-06-30T20:23:39.258Z,49.10
2018-06-30T20:26:45.825Z,49.70
2018-06-30T20:29:50.560Z,50.20
2018-06-30T20:32:55.027Z,50.60
2018-06-30T20:35:59.568Z,51.00
2018-06-30T20:39:05.363Z,51.60
2018-06-30T20:42:09.911Z,52.00
2018-06-30T20:45:14.805Z,52.70
2018-06-30T20:48:19.330Z,52.70
2018-06-30T20:51:23.983Z,53.10
2018-06-30T20:54:28.879Z,53.60
2018-06-30T20:57:34.148Z,54.00
2018-06-30T21:00:38.778Z,53.90
2018-06-30T21:03:43.630Z,54.00
2018-06-30T21:09:52.416Z,54.80
2018-06-30T21:12:57.523Z,54.10
2018-06-30T21:16:02.540Z,54.80
2018-06-30T21:19:07.642Z,55.40
2018-06-30T21:22:12.423Z,55.70
2018-06-30T21:25:17.312Z,56.10
2018-06-30T21:28:22.368Z,56.40
2018-06-30T21:31:27.098Z,56.50
2018-06-30T21:34:31.934Z,56.90
2018-06-30T21:37:36.759Z,57.40
2018-06-30T21:40:41.749Z,57.30
2018-06-30T21:43:46.329Z,57.60
2018-06-30T21:46:50.778Z,58.00
2018-06-30T21:49:55.306Z,59.30
2018-06-30T21:52:59.559Z,59.10
2018-06-30T21:56:04.985Z,59.40
2018-06-30T21:59:09.906Z,59.50
2018-06-30T22:02:15.862Z,59.80
2018-06-30T22:05:20.438Z,60.50
2018-06-30T22:08:24.871Z,60.70
2018-06-30T22:11:29.264Z,60.40
2018-06-30T22:14:33.897Z,61.30
2018-06-30T22:17:38.532Z,62.30
2018-06-30T22:20:42.983Z,63.20
2018-06-30T22:23:47.238Z,65.40
2018-06-30T22:26:51.899Z,64.90
2018-06-30T22:29:56.472Z,64.70
2018-06-30T22:33:00.965Z,64.60
2018-06-30T22:36:05.650Z,65.50
2018-06-30T22:39:12.049Z,65.40
2018-06-30T22:42:16.649Z,65.30
2018-06-30T22:45:22.105Z,65.10
2018-06-30T22:48:26.891Z,64.80
2018-06-30T22:55:17.606Z,66.10
2018-06-30T22:58:22.807Z,66.90
2018-06-30T23:01:29.482Z,71.10
2018-06-30T23:04:34.711Z,71.70
2018-06-30T23:07:40.058Z,71.60
2018-06-30T23:10:44.699Z,72.80
2018-06-30T23:13:49.458Z,72.80
2018-06-30T23:16:54.048Z,74.40
2018-06-30T23:19:58.597Z,75.90
2018-06-30T23:23:04.643Z,75.40
2018-06-30T23:26:09.259Z,76.30
2018-06-30T23:29:13.766Z,76.50
2018-06-30T23:32:18.351Z,78.10
2018-06-30T23:35:24.559Z,78.50
2018-06-30T23:38:29.017Z,78.80
2018-06-30T23:41:33.727Z,79.70
2018-06-30T23:44:38.505Z,79.50
2018-06-30T23:47:43.031Z,81.40
2018-06-30T23:50:47.717Z,81.00
2018-06-30T23:53:52.556Z,79.30
2018-06-30T23:56:58.526Z,80.60
